Surrey Half Marathon
10 Mar 2019

     
Click your name for detailed results

Page 1 of 72 (3559 items)
PosBib NoNameGun TimeChip TimeCategoryCat PosGenderGen PosClubCompany nameAge GradePace
16415Paul POLLOCK1:06:23.71:06:23.7Top 31Male1KENT AC 87.95 11.8 m/hr
26244Abdulaziz Mahamedsalih EBRAHIM1:06:54.91:06:54.0Top 32Male2STRINDHEIM IL FRIIDRETT 89.72 11.7 m/hr
32740Andy COLEY-MAUD1:07:11.81:07:11.3Top 33Male3CLAPHAM CHASERS 87.32 11.7 m/hr
46130Alex MILNE1:09:15.91:09:15.8Sen1Male4ENFIELD & HARINGEY AC 84.29 11.3 m/hr
55046Matthew RICHARDS1:10:56.61:10:56.1Sen2Male5READING ROADRUNNERS 82.31 11.1 m/hr
64286Ben GODDARD1:11:41.71:11:41.3Sen3Male6WOKING AC 81.65 11.0 m/hr
75937Stephen BLAKE1:11:53.11:11:53.0Sen4Male7WOKING AC 81.22 10.9 m/hr
82467Simon BAINES1:11:59.31:11:58.4V451Male8THAMES HARE & HOUNDS 88.96 10.9 m/hr
95138Gary LAYBOURNE1:12:20.51:12:19.9Sen5Male9SOUTH LONDON HARRIERS 82.04 10.9 m/hr
106722Chris MASON1:12:44.31:12:43.1Sen6Male10WEST 4 HARRIERS 80.67 10.8 m/hr
116204James CHETTLE1:12:53.31:12:52.2Sen7Male11THAMES HARE & HOUNDS 80.11 10.8 m/hr
125962Duncan WOOLMER1:13:34.41:13:33.4Sen8Male12WALTON ATHLETIC CLUB 81.10 10.7 m/hr
135588Aaron WILSON1:13:49.91:13:46.5Sen9Male13CITY OF SALISBURY A&RC 80.82 10.6 m/hr
142565Steve GARDNER1:14:08.31:14:08.0Sen10Male14BELGRAVE HARRIERS 78.75 10.6 m/hr
153793Christopher PECK1:14:35.81:14:31.7Sen11Male15WAVERLEY HARRIERS 79.20 10.5 m/hr
165959Milan WATSON1:14:55.11:14:53.7Sen12Male16BRIGHTON PHEONIX 77.94 10.5 m/hr
172792James IRVINE1:15:02.81:15:02.1Sen13Male17 77.88 10.5 m/hr
185948Mark HILL1:15:12.61:15:11.3Sen14Male18RUGBY AND NORTHAMPTON 77.71 10.5 m/hr
192184Fabio RIZZO1:15:17.61:15:15.7Sen15Male19ORION HARRIERS 78.82 10.4 m/hr
213617James GAMBLE1:15:19.81:15:18.0Sen17Male21WOKING AC 77.50 10.4 m/hr
202156Sam CORNFORTH1:15:19.81:15:18.6Sen16Male20VICTORIA PARK HARRIERS 77.50 10.4 m/hr
226317Craig JARMAN1:15:21.11:15:20.1Sen18Male22WALTON AC 77.48 10.4 m/hr
232085Carl HOLDEN1:15:37.21:15:34.8Sen19Male23 77.41 10.4 m/hr
246491James THOMAS1:15:49.71:15:48.0V401Male24WOKING AC 80.99 10.4 m/hr
256127Fabio GELBCKE1:15:51.51:15:50.7Sen20Male25HIGHGATE HARRIERS 76.96 10.4 m/hr
263156Roger BARR1:16:00.81:15:58.4V402Male26HORSLEY SHUFFLERS 80.14 10.3 m/hr
275276Glenn MITCHELL1:16:33.51:16:29.3Sen21Male27CRAWLEY AC 76.26 10.3 m/hr
286328Ian KENTON1:16:42.41:16:39.2Sen22Male28RANELAGH HARRIERS 77.37 10.2 m/hr
292712Joseph GONZALEZ-ARMAS1:17:03.61:17:01.7V501Male2926.2 ROAD RUNNERS CLUB 84.55 10.2 m/hr
305324Gary TOMLINSON1:17:03.81:17:02.4V403Male30HORSHAM JOGGERS 77.90 10.2 m/hr
312562Eddie ROLLS1:17:22.81:17:21.5Sen23Male31CLAPHAM CHASERS 75.45 10.2 m/hr
326356James MALONEY1:17:52.21:17:38.5Sen24Male32DURHAM UNIVERSITY ATHLETICS CLUB 74.98 10.1 m/hr
333032Chris DAVIDSON1:17:59.01:17:56.5Sen25Male33ELMBRIDGE ROAD RUNNERS 74.88 10.1 m/hr
346487Mark TATLOW1:18:13.41:18:08.1Sen26Male34CLAPHAM CHASERS 74.64 10.0 m/hr
352054Harry SMITH1:18:32.51:18:26.5Sen27Male35AMPTHILL & FLITWICK FLYERS RC 74.33 10.0 m/hr
362049Mark STYLES1:18:36.11:18:33.9Sen28Male36NUNEATON HARRIERS 74.65 10.0 m/hr
385418Jacob HAYES1:19:00.71:18:53.5V452Male38BITTON ROAD RUNNERS 80.36 9.9 m/hr
375161Ugur ALTAN1:18:59.41:18:55.7Sen29Male37SUTTON RUNNERS 73.91 10.0 m/hr
392670Jacob LANDERS1:19:09.91:19:08.2Sen30Male39CLAPHAM PIONEERS 73.75 9.9 m/hr
435008Andrew BROWN1:19:39.31:19:15.3Sen32Male43 73.29 9.9 m/hr
404544Peter MARWOOD1:19:21.71:19:19.1V404Male40 75.65 9.9 m/hr
412135Chris JONES1:19:26.61:19:23.7V405Male41GARDEN CITY RUNNERS 77.31 9.9 m/hr
422248Andrew HORSFALL-TURNER1:19:31.91:19:28.0Sen31Male42HT SWIM PRO 73.41 9.9 m/hr
442109James TIMMIS1:19:51.41:19:46.2Sen33Male44 73.11 9.8 m/hr
452471Emma DAVIS1:20:11.81:20:08.4Top 31Female1WARD PARK RUNNERS 81.50 9.8 m/hr
466407Ed PERRY1:20:14.31:20:11.3Sen34Male45RANELAGH HARRIERS 72.96 9.8 m/hr
475953Andrew MORETON1:20:28.71:20:25.8Sen35Male46ELMBRIDGE ROAD RUNNERS 73.13 9.8 m/hr
503162Oliver CASS1:20:34.01:20:27.4V407Male48HORSLEY SHUFFLERS 76.86 9.8 m/hr
482728Steve NICHOLLS1:20:29.71:20:27.5V406Male4726.2 ROAD RUNNERS CLUB 76.93 9.8 m/hr
494997Lesley LOCKS1:20:31.21:20:29.6Top 32Female2HART ROAD RUNNERS 84.94 9.8 m/hr
Page 1 of 72 (3559 items)
   

fb